createdAt,value
2017-06-21T00:00:33.595Z,45.8
2017-06-21T00:01:35.654Z,45.7
2017-06-21T00:02:37.765Z,46
2017-06-21T00:03:39.841Z,45.8
2017-06-21T00:04:41.896Z,45.8
2017-06-21T00:05:43.962Z,46
2017-06-21T00:06:46.163Z,46
2017-06-21T00:07:48.226Z,46.1
2017-06-21T00:08:50.276Z,46.1
2017-06-21T00:09:52.702Z,46
2017-06-21T00:10:54.787Z,46
2017-06-21T00:11:56.840Z,46.1
2017-06-21T00:12:58.895Z,46.2
2017-06-21T00:14:00.958Z,46.3
2017-06-21T00:15:03.027Z,46.1
2017-06-21T00:16:05.083Z,46.1
2017-06-21T00:17:07.235Z,46
2017-06-21T00:18:09.294Z,46.3
2017-06-21T00:19:11.357Z,46.3
2017-06-21T00:20:13.638Z,46.2
2017-06-21T00:21:15.700Z,46.4
2017-06-21T00:22:17.763Z,46.2
2017-06-21T00:23:20.160Z,46.2
2017-06-21T00:24:22.222Z,46.3
2017-06-21T00:25:24.279Z,46.4
2017-06-21T00:26:26.811Z,46.4
2017-06-21T00:27:28.880Z,46.4
2017-06-21T00:28:30.934Z,46.2
2017-06-21T00:29:33.583Z,46.4
2017-06-21T00:30:35.643Z,46.4
2017-06-21T00:31:37.713Z,46.5
2017-06-21T00:32:40.114Z,46.5
2017-06-21T00:33:42.583Z,46.5
2017-06-21T00:34:44.646Z,46.7
2017-06-21T00:35:46.702Z,46.7
2017-06-21T00:36:48.756Z,46.6
2017-06-21T00:37:50.849Z,46.9
2017-06-21T00:38:52.911Z,47
2017-06-21T00:39:54.973Z,47
2017-06-21T00:40:57.337Z,46.9
2017-06-21T00:41:59.393Z,47
2017-06-21T00:43:01.456Z,47
2017-06-21T00:44:03.508Z,46.8
2017-06-21T00:45:05.563Z,46.8
2017-06-21T00:46:07.828Z,46.9
2017-06-21T00:47:09.885Z,47.2
2017-06-21T00:48:11.992Z,47.2
2017-06-21T00:49:14.070Z,47.2
2017-06-21T00:50:16.130Z,47.2
2017-06-21T00:51:18.192Z,47.2
2017-06-21T00:52:20.248Z,47.4
2017-06-21T00:53:22.309Z,47.3
2017-06-21T00:54:25.064Z,47.3
2017-06-21T00:55:27.119Z,47.3
2017-06-21T00:56:30.160Z,47.5
2017-06-21T00:57:32.220Z,47.4
2017-06-21T00:58:34.637Z,47.4
2017-06-21T00:59:36.729Z,47.4
2017-06-21T01:00:38.778Z,47.5
2017-06-21T01:01:41.181Z,47.5
2017-06-21T01:02:43.232Z,47.3
2017-06-21T01:03:45.287Z,47.5
2017-06-21T01:04:47.666Z,47.6
2017-06-21T01:05:49.734Z,47.4
2017-06-21T01:06:51.788Z,47.5
2017-06-21T01:07:53.853Z,47.8
2017-06-21T01:08:55.917Z,47.5
2017-06-21T01:09:57.980Z,47.6
2017-06-21T01:11:00.036Z,47.5
2017-06-21T01:12:02.110Z,47.6
2017-06-21T01:13:04.294Z,47.6
2017-06-21T01:14:06.337Z,47.6
2017-06-21T01:15:08.876Z,47.9
2017-06-21T01:16:10.932Z,47.9
2017-06-21T01:17:14.004Z,47.7
2017-06-21T01:18:16.068Z,47.8
2017-06-21T01:19:18.139Z,47.6
2017-06-21T01:20:20.217Z,47.8
2017-06-21T01:21:22.809Z,47.8
2017-06-21T01:22:24.871Z,47.9
2017-06-21T01:23:26.944Z,47.7
2017-06-21T01:24:28.988Z,47.6
2017-06-21T01:25:31.057Z,47.6
2017-06-21T01:26:33.664Z,47.7
2017-06-21T01:27:36.057Z,47.7
2017-06-21T01:28:38.159Z,47.7
2017-06-21T01:29:40.210Z,47.8
2017-06-21T01:30:42.610Z,47.7
2017-06-21T01:31:44.672Z,47.9
2017-06-21T01:32:46.729Z,47.8
2017-06-21T01:33:48.793Z,47.8
2017-06-21T01:34:51.204Z,47.6
2017-06-21T01:35:53.262Z,47.7
2017-06-21T01:36:55.694Z,48
2017-06-21T01:37:57.744Z,48
2017-06-21T01:38:59.801Z,47.8
2017-06-21T01:40:01.856Z,47.8
2017-06-21T01:41:03.923Z,48.1
2017-06-21T01:42:05.987Z,48.1
2017-06-21T01:43:08.035Z,48.1
2017-06-21T01:44:10.085Z,48.3
2017-06-21T01:45:12.132Z,48.2
2017-06-21T01:46:14.193Z,48
2017-06-21T01:47:16.261Z,48
2017-06-21T01:48:18.329Z,48
2017-06-21T01:49:20.402Z,48.4
2017-06-21T01:50:22.454Z,48.1
2017-06-21T01:51:24.518Z,48.5
2017-06-21T01:52:26.580Z,48.5
2017-06-21T01:53:28.628Z,48.2
2017-06-21T01:54:30.692Z,48.1
2017-06-21T01:55:33.569Z,48.3
2017-06-21T01:56:35.960Z,48.2
2017-06-21T01:57:38.016Z,48.4
2017-06-21T01:58:40.079Z,48.3
2017-06-21T01:59:42.148Z,48.4
2017-06-21T02:00:44.204Z,48.3
2017-06-21T02:01:46.311Z,48.4
2017-06-21T02:02:48.839Z,48.2
2017-06-21T02:03:50.955Z,48.3
2017-06-21T02:04:53.007Z,48.6
2017-06-21T02:05:55.212Z,48.7
2017-06-21T02:06:57.260Z,48.4
2017-06-21T02:07:59.327Z,48.4
2017-06-21T02:09:01.506Z,48.4
2017-06-21T02:10:03.554Z,48.4
2017-06-21T02:11:05.690Z,48.5
2017-06-21T02:12:07.739Z,48.3
2017-06-21T02:13:10.006Z,48.5
2017-06-21T02:14:12.086Z,48.4
2017-06-21T02:15:14.143Z,48.4
2017-06-21T02:16:16.202Z,48.2
2017-06-21T02:17:18.265Z,48.4
2017-06-21T02:18:20.328Z,48.6
2017-06-21T02:19:22.382Z,48.6
2017-06-21T02:20:24.439Z,48.5
2017-06-21T02:21:26.487Z,48.4
2017-06-21T02:22:28.563Z,48.5
2017-06-21T02:23:31.645Z,48.4
2017-06-21T02:24:33.699Z,48.4
2017-06-21T02:25:35.765Z,48.4
2017-06-21T02:26:37.817Z,48.5
2017-06-21T02:27:39.881Z,48.3
2017-06-21T02:28:42.040Z,48.7
2017-06-21T02:29:44.096Z,48.7
2017-06-21T02:30:46.160Z,48.5
2017-06-21T02:31:48.223Z,48.5
2017-06-21T02:32:50.274Z,48.4
2017-06-21T02:33:52.329Z,48.5
2017-06-21T02:34:54.392Z,48.8
2017-06-21T02:35:56.443Z,48.8
2017-06-21T02:36:58.496Z,48.6
2017-06-21T02:38:00.557Z,48.2
2017-06-21T02:39:02.612Z,48.4
2017-06-21T02:40:04.655Z,48.4
2017-06-21T02:41:06.720Z,48.5
2017-06-21T02:42:08.779Z,48.6
2017-06-21T02:43:10.834Z,48.4
2017-06-21T02:44:13.356Z,48.2
2017-06-21T02:45:15.411Z,48.3
2017-06-21T02:46:17.476Z,48.4
2017-06-21T02:47:19.541Z,48.7
2017-06-21T02:48:21.592Z,48.5
2017-06-21T02:49:23.662Z,48.4
2017-06-21T02:50:25.713Z,48.4
2017-06-21T02:51:27.758Z,48.5
2017-06-21T02:52:29.815Z,48.4
2017-06-21T02:53:31.878Z,48.3
2017-06-21T02:54:33.924Z,48.3
2017-06-21T02:55:36.089Z,48.6
2017-06-21T02:56:38.138Z,48.3
2017-06-21T02:57:40.540Z,48.4
2017-06-21T02:58:43.121Z,48.3
2017-06-21T02:59:45.327Z,48.4
2017-06-21T03:00:47.395Z,48.5
2017-06-21T03:01:49.706Z,48.3
2017-06-21T03:02:51.750Z,48.5
2017-06-21T03:03:53.832Z,48.4
2017-06-21T03:04:55.977Z,48.4
2017-06-21T03:05:58.037Z,48.4
2017-06-21T03:07:00.276Z,48.4
2017-06-21T03:08:02.329Z,48.5
2017-06-21T03:09:04.892Z,48.5
2017-06-21T03:10:06.952Z,48.5
2017-06-21T03:11:09.161Z,48.6
2017-06-21T03:12:11.215Z,48.3
2017-06-21T03:13:13.606Z,48.3
2017-06-21T03:14:15.661Z,48.4
2017-06-21T03:15:17.722Z,48.3
2017-06-21T03:16:20.114Z,48.3
2017-06-21T03:17:22.513Z,48.4
2017-06-21T03:18:24.564Z,48.6
2017-06-21T03:19:26.613Z,48.6
2017-06-21T03:20:28.677Z,48.5
2017-06-21T03:21:30.734Z,48.4
2017-06-21T03:22:32.792Z,48.6
2017-06-21T03:23:35.314Z,48.3
2017-06-21T03:24:37.377Z,48.7
2017-06-21T03:25:39.434Z,48.3
2017-06-21T03:26:41.487Z,48.4
2017-06-21T03:27:43.552Z,48.2
2017-06-21T03:28:45.611Z,48.4
2017-06-21T03:29:47.997Z,48.3
2017-06-21T03:30:50.058Z,48.2
2017-06-21T03:31:52.115Z,48.3
2017-06-21T03:32:54.169Z,48.1
2017-06-21T03:33:56.219Z,48.4
2017-06-21T03:34:58.273Z,48.2
2017-06-21T03:36:00.812Z,48.2
2017-06-21T03:37:02.863Z,48.4
2017-06-21T03:38:05.219Z,48.6
2017-06-21T03:39:07.275Z,48
2017-06-21T03:40:09.334Z,47.9
2017-06-21T03:41:11.750Z,48.1
2017-06-21T03:42:14.154Z,47.6
2017-06-21T03:43:16.196Z,46.9
2017-06-21T03:44:18.261Z,46
2017-06-21T03:45:20.665Z,45.3
2017-06-21T03:46:22.722Z,44.7
2017-06-21T03:47:24.790Z,44.4
2017-06-21T03:48:27.112Z,43.7
2017-06-21T03:49:29.172Z,43.2
2017-06-21T03:50:32.156Z,42.7
2017-06-21T03:51:34.543Z,42.7
2017-06-21T03:52:36.611Z,42.3
2017-06-21T03:53:39.009Z,42.1
2017-06-21T03:54:41.063Z,42
2017-06-21T03:55:43.123Z,41.8
2017-06-21T03:56:45.239Z,41.6
2017-06-21T03:57:47.638Z,41.5
2017-06-21T03:58:49.977Z,41.2
2017-06-21T03:59:52.376Z,41.3
2017-06-21T04:00:54.780Z,40.9
2017-06-21T04:01:56.832Z,41
2017-06-21T04:02:58.889Z,40.8
2017-06-21T04:04:00.952Z,40.6
2017-06-21T04:05:03.009Z,40.6
2017-06-21T04:06:05.073Z,40.5
2017-06-21T04:07:07.526Z,40.4
2017-06-21T04:08:09.925Z,40.3
2017-06-21T04:09:11.973Z,40.2
2017-06-21T04:10:14.364Z,40
2017-06-21T04:11:16.432Z,39.9
2017-06-21T04:12:18.489Z,39.7
2017-06-21T04:13:20.540Z,39.7
2017-06-21T04:14:23.415Z,39.5
2017-06-21T04:15:25.466Z,39.7
2017-06-21T04:16:27.533Z,39.6
2017-06-21T04:17:29.589Z,39.3
2017-06-21T04:18:31.635Z,39.2
2017-06-21T04:19:33.699Z,39.2
2017-06-21T04:20:36.091Z,39.1
2017-06-21T04:21:38.519Z,38.9
2017-06-21T04:22:40.591Z,38.9
2017-06-21T04:23:42.647Z,38.8
2017-06-21T04:24:45.182Z,38.8
2017-06-21T04:25:47.232Z,38.8
2017-06-21T04:26:49.291Z,38.7
2017-06-21T04:27:51.353Z,38.6
2017-06-21T04:28:53.761Z,38.5
2017-06-21T04:29:55.865Z,38.4
2017-06-21T04:30:57.929Z,38.5
2017-06-21T04:31:59.988Z,38.5
2017-06-21T04:33:02.392Z,38.5
2017-06-21T04:34:04.787Z,38.1
2017-06-21T04:35:06.869Z,38.2
2017-06-21T04:36:08.938Z,38.1
2017-06-21T04:37:10.986Z,38.1
2017-06-21T04:38:13.062Z,38
2017-06-21T04:39:15.134Z,37.9
2017-06-21T04:40:17.189Z,37.8
2017-06-21T04:41:19.256Z,37.8
2017-06-21T04:42:21.312Z,37.8
2017-06-21T04:43:23.882Z,37.6
2017-06-21T04:44:25.932Z,37.8
2017-06-21T04:45:27.992Z,37.7
2017-06-21T04:46:30.054Z,37.7
2017-06-21T04:47:32.152Z,37.5
2017-06-21T04:48:34.213Z,37.4
2017-06-21T04:49:36.279Z,37.5
2017-06-21T04:50:38.342Z,37.3
2017-06-21T04:51:40.750Z,37.2
2017-06-21T04:52:42.810Z,37.5
2017-06-21T04:53:44.872Z,37.4
2017-06-21T04:54:46.930Z,37.2
2017-06-21T04:55:48.987Z,37.2
2017-06-21T04:56:51.402Z,37.1
2017-06-21T04:57:53.464Z,37.1
2017-06-21T04:58:55.515Z,37.2
2017-06-21T04:59:57.612Z,37.1
2017-06-21T05:00:59.674Z,37.2
2017-06-21T05:02:01.731Z,36.9
2017-06-21T05:03:03.792Z,36.8
2017-06-21T05:04:05.863Z,36.8
2017-06-21T05:05:07.935Z,36.8
2017-06-21T05:06:09.989Z,36.7
2017-06-21T05:07:12.046Z,36.7
2017-06-21T05:08:14.110Z,36.9
2017-06-21T05:09:16.184Z,36.8
2017-06-21T05:10:18.587Z,36.7
2017-06-21T05:11:20.649Z,36.6
2017-06-21T05:12:22.716Z,36.5
2017-06-21T05:13:24.781Z,36.4
2017-06-21T05:14:27.182Z,36.4
2017-06-21T05:15:29.259Z,36.3
2017-06-21T05:16:31.321Z,36.2
2017-06-21T05:17:33.715Z,36.3
2017-06-21T05:19:14.157Z,36.3
2017-06-21T05:20:16.216Z,36.3
2017-06-21T05:21:18.275Z,36
2017-06-21T05:22:20.793Z,36.2
2017-06-21T05:23:22.845Z,36.1
2017-06-21T05:24:24.908Z,36.1
2017-06-21T05:25:26.955Z,36.2
2017-06-21T05:26:29.012Z,36.1
2017-06-21T05:27:31.081Z,36
2017-06-21T05:28:33.481Z,36
2017-06-21T05:29:35.538Z,36
2017-06-21T05:30:37.586Z,35.8
2017-06-21T05:31:39.671Z,35.8
2017-06-21T05:32:41.921Z,35.8
2017-06-21T05:33:43.977Z,35.6
2017-06-21T05:34:46.030Z,35.6
2017-06-21T05:35:48.124Z,35.6
2017-06-21T05:36:50.526Z,35.5
2017-06-21T05:37:52.576Z,35.5
2017-06-21T05:38:54.633Z,35.4
2017-06-21T05:39:57.026Z,35.2
2017-06-21T05:40:59.083Z,35.1
2017-06-21T05:42:01.150Z,35.2
2017-06-21T05:43:03.207Z,35.1
2017-06-21T05:44:05.261Z,35.1
2017-06-21T05:45:07.320Z,35
2017-06-21T05:46:09.377Z,35
2017-06-21T05:47:11.431Z,34.9
2017-06-21T05:48:13.831Z,34.9
2017-06-21T05:49:15.889Z,34.8
2017-06-21T05:50:17.943Z,34.8
2017-06-21T05:51:19.997Z,34.6
2017-06-21T05:52:22.059Z,34.6
2017-06-21T05:53:24.107Z,34.5
2017-06-21T05:54:26.165Z,34.5
2017-06-21T05:55:28.217Z,34.3
2017-06-21T05:56:30.267Z,34.3
2017-06-21T05:57:32.688Z,34.3
2017-06-21T05:58:34.742Z,34
2017-06-21T05:59:36.799Z,33.8
2017-06-21T06:00:39.062Z,33.6
2017-06-21T06:01:41.122Z,33.4
2017-06-21T06:02:43.186Z,33.1
2017-06-21T06:03:45.237Z,32.9
2017-06-21T06:04:47.291Z,32.4
2017-06-21T06:05:49.355Z,32.2
2017-06-21T06:06:51.764Z,32
2017-06-21T06:07:53.820Z,31.4
2017-06-21T06:08:55.980Z,30.9
2017-06-21T06:09:58.031Z,30.5
2017-06-21T06:11:00.562Z,30.7
2017-06-21T06:12:02.620Z,30.5
2017-06-21T06:13:04.669Z,30.7
2017-06-21T06:14:06.730Z,30
2017-06-21T06:15:08.788Z,30.4
2017-06-21T06:16:10.842Z,30.5
2017-06-21T06:17:12.896Z,30
2017-06-21T06:18:14.947Z,29.6
2017-06-21T06:19:17.008Z,29.2
2017-06-21T06:20:19.059Z,28.9
2017-06-21T06:21:21.124Z,28.6
2017-06-21T06:22:23.598Z,28.4
2017-06-21T06:23:25.648Z,28.2
2017-06-21T06:24:27.715Z,28
2017-06-21T06:25:29.779Z,28.2
2017-06-21T06:26:31.840Z,28
2017-06-21T06:27:34.237Z,27.8
2017-06-21T06:28:36.297Z,27.8
2017-06-21T06:29:38.357Z,27.6
2017-06-21T06:30:40.413Z,27.5
2017-06-21T06:31:42.466Z,27.5
2017-06-21T06:32:45.055Z,27.6
2017-06-21T06:33:47.466Z,28.2
2017-06-21T06:34:49.518Z,27.8
2017-06-21T06:35:51.572Z,27.4
2017-06-21T06:36:53.625Z,27.6
2017-06-21T06:37:55.686Z,27.6
2017-06-21T06:38:57.737Z,27.7
2017-06-21T06:39:59.805Z,27.4
2017-06-21T06:41:01.874Z,27.1
2017-06-21T06:42:03.930Z,27.3
2017-06-21T06:43:05.990Z,28.2
2017-06-21T06:44:08.052Z,28.3
2017-06-21T06:45:10.470Z,27.8
2017-06-21T06:46:12.533Z,27.4
2017-06-21T06:47:14.590Z,27.1
2017-06-21T06:48:16.639Z,27.4
2017-06-21T06:49:18.706Z,28.4
2017-06-21T06:50:20.766Z,29.4
2017-06-21T06:51:23.167Z,29.6
2017-06-21T06:52:25.229Z,29.3
2017-06-21T06:53:27.274Z,28.8
2017-06-21T06:54:29.329Z,29.6
2017-06-21T06:55:31.396Z,30.1
2017-06-21T06:56:33.448Z,30.3
2017-06-21T06:57:35.515Z,31.2
2017-06-21T06:58:37.576Z,31.6
2017-06-21T06:59:39.661Z,30.5
2017-06-21T07:00:41.715Z,30.8
2017-06-21T07:01:43.770Z,31
2017-06-21T07:02:45.879Z,31.7
2017-06-21T07:03:47.942Z,32.1
2017-06-21T07:04:49.998Z,32.5
2017-06-21T07:05:52.061Z,32.7
2017-06-21T07:06:54.131Z,32.8
2017-06-21T07:07:56.260Z,32.7
2017-06-21T07:08:58.333Z,32.6
2017-06-21T07:10:00.425Z,32.6
2017-06-21T07:11:02.489Z,32.7
2017-06-21T07:12:04.560Z,32.8
2017-06-21T07:13:06.620Z,33
2017-06-21T07:14:08.685Z,33
2017-06-21T07:15:10.736Z,33.2
2017-06-21T07:16:13.156Z,33.2
2017-06-21T07:17:15.254Z,33.4
2017-06-21T07:18:17.657Z,33.6
2017-06-21T07:19:19.921Z,33.7
2017-06-21T07:20:21.976Z,33.8
2017-06-21T07:21:24.090Z,34
2017-06-21T07:22:26.145Z,34.1
2017-06-21T07:23:28.202Z,34.1
2017-06-21T07:24:30.270Z,34.1
2017-06-21T07:25:32.327Z,34.2
2017-06-21T07:26:34.380Z,34.1
2017-06-21T07:27:36.444Z,34.2
2017-06-21T07:28:38.486Z,34.3
2017-06-21T07:29:40.535Z,34.6
2017-06-21T07:30:42.586Z,34.7
2017-06-21T07:31:44.646Z,35
2017-06-21T07:32:46.723Z,35.4
2017-06-21T07:33:48.768Z,35.5
2017-06-21T07:34:50.893Z,35.5
2017-06-21T07:35:52.953Z,35.4
2017-06-21T07:36:55.045Z,35.4
2017-06-21T07:37:57.165Z,35.3
2017-06-21T07:38:59.228Z,35.4
2017-06-21T07:40:01.285Z,35.3
2017-06-21T07:41:03.388Z,35.2
2017-06-21T07:42:05.432Z,35.2
2017-06-21T07:43:07.989Z,35.3
2017-06-21T07:44:10.371Z,35.5
2017-06-21T07:45:12.426Z,35.4
2017-06-21T07:46:14.483Z,35.4
2017-06-21T07:47:16.862Z,35.3
2017-06-21T07:48:18.917Z,35.3
2017-06-21T07:49:21.353Z,35.4
2017-06-21T07:50:23.402Z,35.4
2017-06-21T07:51:25.462Z,35.4
2017-06-21T07:52:27.732Z,35.5
2017-06-21T07:53:30.135Z,35.6
2017-06-21T07:54:32.254Z,35.6
2017-06-21T07:55:34.302Z,35.6
2017-06-21T07:56:36.364Z,35.4
2017-06-21T07:57:38.480Z,35.5
2017-06-21T07:58:40.528Z,35.4
2017-06-21T07:59:42.598Z,35.2
2017-06-21T08:00:44.748Z,35.2
2017-06-21T08:01:46.811Z,35.3
2017-06-21T08:02:48.857Z,35.4
2017-06-21T08:03:50.908Z,35.5
2017-06-21T08:04:52.969Z,35.5
2017-06-21T08:05:55.033Z,35.6
2017-06-21T08:06:57.082Z,35.6
2017-06-21T08:07:59.174Z,35.7
2017-06-21T08:09:01.222Z,36
2017-06-21T08:10:03.289Z,35.9
2017-06-21T08:11:05.372Z,36.2
2017-06-21T08:12:08.246Z,36.3
2017-06-21T08:13:10.331Z,36.2
2017-06-21T08:14:12.386Z,36.2
2017-06-21T08:15:14.504Z,36.2
2017-06-21T08:16:16.565Z,36.4
2017-06-21T08:17:18.613Z,36.5
2017-06-21T08:18:20.673Z,36.5
2017-06-21T08:19:23.090Z,36.6
2017-06-21T08:20:25.232Z,36.7
2017-06-21T08:21:27.358Z,36.8
2017-06-21T08:22:29.411Z,36.9
2017-06-21T08:23:31.481Z,36.8
2017-06-21T08:24:33.531Z,36.8
2017-06-21T08:25:04.854Z,36.8
2017-06-21T08:25:27.376Z,36.9
2017-06-21T08:25:31.775Z,37
2017-06-21T08:26:13.041Z,37
2017-06-21T08:27:19.173Z,37
2017-06-21T08:27:46.780Z,37
2017-06-21T08:28:52.196Z,37
2017-06-21T08:28:57.722Z,36.9
2017-06-21T08:29:59.777Z,36.9
2017-06-21T08:31:01.840Z,37.1
2017-06-21T08:32:03.890Z,37.2
2017-06-21T08:33:06.151Z,37.4
2017-06-21T08:34:09.811Z,37.4
2017-06-21T08:35:12.039Z,37.3
2017-06-21T08:36:14.280Z,37.4
2017-06-21T08:37:16.821Z,37.6
2017-06-21T08:38:19.121Z,37.7
2017-06-21T08:39:21.178Z,38
2017-06-21T08:40:23.238Z,38
2017-06-21T08:41:25.296Z,38.1
2017-06-21T08:42:27.404Z,38
2017-06-21T08:43:29.462Z,38
2017-06-21T08:44:31.533Z,38
2017-06-21T08:45:33.594Z,38.1
2017-06-21T08:46:35.648Z,38.4
2017-06-21T08:47:37.733Z,38.5
2017-06-21T08:48:39.788Z,38.6
2017-06-21T08:49:41.835Z,38.6
2017-06-21T09:25:18.030Z,38.6
2017-06-21T09:25:37.699Z,36.3
2017-06-21T09:26:39.962Z,36.1
2017-06-21T09:27:42.036Z,37.1
2017-06-21T09:28:44.213Z,37.4
2017-06-21T09:29:46.268Z,37.6
2017-06-21T09:30:48.583Z,37.7
2017-06-21T09:31:50.636Z,37.9
2017-06-21T09:32:52.694Z,38.1
2017-06-21T09:33:54.759Z,38.2
2017-06-21T09:34:56.817Z,38.2
2017-06-21T09:35:58.884Z,38.3
2017-06-21T09:37:01.642Z,38.2
2017-06-21T09:38:03.706Z,38.4
2017-06-21T09:39:05.839Z,38.2
2017-06-21T09:40:07.931Z,38.2
2017-06-21T09:41:10.007Z,38.3
2017-06-21T09:42:19.032Z,38.5
2017-06-21T09:43:21.110Z,38.5
2017-06-21T09:44:23.522Z,38.5
2017-06-21T09:45:25.699Z,38.4
2017-06-21T09:46:27.783Z,38.4
2017-06-21T09:47:29.867Z,38.8
2017-06-21T11:27:07.839Z,39.6
2017-06-21T11:27:27.567Z,37.8
2017-06-21T11:28:30.402Z,37.7
2017-06-21T11:29:32.482Z,37.7
2017-06-21T11:30:34.924Z,37.8
2017-06-21T11:31:37.007Z,38
2017-06-21T11:32:39.103Z,38.3
2017-06-21T11:33:41.175Z,38.4
2017-06-21T11:34:43.268Z,38.4
2017-06-21T11:35:45.700Z,38.5
2017-06-21T11:36:47.772Z,38.6
2017-06-21T11:37:50.181Z,38.8
2017-06-21T11:38:52.263Z,39.1
2017-06-21T11:39:54.346Z,39.2
2017-06-21T11:40:56.432Z,39.4
2017-06-21T11:41:58.533Z,39.4
2017-06-21T11:43:00.961Z,39.6
2017-06-21T11:44:03.040Z,39.7
2017-06-21T11:45:05.112Z,39.7
2017-06-21T11:46:07.223Z,39.8
2017-06-21T11:47:09.306Z,40.4
2017-06-21T11:48:11.388Z,40.5
2017-06-21T11:49:13.480Z,40.5
2017-06-21T11:50:15.899Z,40.3
2017-06-21T11:51:18.009Z,40.2
2017-06-21T11:52:20.087Z,40.6
2017-06-21T11:53:22.163Z,40.7
2017-06-21T11:54:24.254Z,41.7
2017-06-21T11:55:26.347Z,41.3
2017-06-21T11:56:28.841Z,41.3
2017-06-21T11:57:30.921Z,41.5
2017-06-21T11:58:33.014Z,41.5
2017-06-21T11:59:35.098Z,41.8
2017-06-21T12:00:37.197Z,41.7
2017-06-21T12:01:39.302Z,41.5
2017-06-21T12:02:41.408Z,41.2
2017-06-21T12:03:43.492Z,41.5
2017-06-21T12:04:45.590Z,41.4
2017-06-21T12:05:47.674Z,41.4
2017-06-21T12:06:49.765Z,42.3
2017-06-21T12:07:51.865Z,42.2
2017-06-21T12:08:53.970Z,42.5
2017-06-21T12:09:56.062Z,42.8
2017-06-21T12:10:58.186Z,42.4
2017-06-21T12:12:00.261Z,42.5
2017-06-21T12:13:02.374Z,42.5
2017-06-21T12:14:04.449Z,42.9
2017-06-21T12:15:06.601Z,42.7
2017-06-21T12:16:08.711Z,42.6
2017-06-21T12:17:10.805Z,42.8
2017-06-21T12:18:13.241Z,42.4
2017-06-21T12:19:15.322Z,42.4
2017-06-21T12:20:14.730Z,42.5
2017-06-21T12:21:16.848Z,42.7
2017-06-21T12:22:18.933Z,42.8
2017-06-21T12:23:21.357Z,42.5
2017-06-21T12:24:23.437Z,42.6
2017-06-21T12:25:25.527Z,42.6
2017-06-21T12:26:27.604Z,42.8
2017-06-21T12:27:31.237Z,42.8
2017-06-21T12:28:34.607Z,43
2017-06-21T12:29:36.723Z,43.2
2017-06-21T12:30:39.324Z,43
2017-06-21T12:31:41.704Z,43.2
2017-06-21T12:32:43.794Z,43.2
2017-06-21T12:33:46.294Z,43.3
2017-06-21T12:34:49.348Z,43.3
2017-06-21T12:35:51.445Z,43.3
2017-06-21T12:36:53.873Z,43.4
2017-06-21T12:37:55.951Z,43.4
2017-06-21T12:38:58.033Z,43.3
2017-06-21T12:40:00.117Z,43.5
2017-06-21T12:41:02.212Z,43.4
2017-06-21T12:42:04.634Z,43.4
2017-06-21T12:43:06.773Z,43.5
2017-06-21T12:44:08.903Z,43.5
2017-06-21T12:45:10.971Z,43.5
2017-06-21T12:46:13.049Z,43.4
2017-06-21T12:47:15.201Z,43.5
2017-06-21T12:48:17.277Z,43.6
2017-06-21T12:49:19.418Z,43.6
2017-06-21T12:50:21.499Z,43.6
2017-06-21T12:51:23.575Z,43.6
2017-06-21T12:52:25.698Z,43.6
2017-06-21T12:53:27.766Z,43.7
2017-06-21T12:54:29.859Z,43.8
2017-06-21T12:56:02.011Z,43.8
2017-06-21T12:57:04.433Z,43.8
2017-06-21T12:58:06.507Z,43.8
2017-06-21T12:59:08.576Z,43.8
2017-06-21T13:00:10.674Z,44
2017-06-21T13:01:12.756Z,44
2017-06-21T13:02:15.035Z,44.1
2017-06-21T13:03:17.112Z,44.2
2017-06-21T13:04:19.185Z,45.2
2017-06-21T13:05:21.355Z,45.7
2017-06-21T13:06:23.438Z,45.9
2017-06-21T13:07:25.517Z,45.7
2017-06-21T13:08:27.828Z,46
2017-06-21T15:30:02.516Z,41.4
2017-06-21T15:30:21.626Z,43
2017-06-21T15:31:23.713Z,42.9
2017-06-21T15:32:25.794Z,43.2
2017-06-21T15:33:27.877Z,43.5
2017-06-21T15:34:29.962Z,43.8
2017-06-21T15:35:32.060Z,44.2
2017-06-21T15:36:34.139Z,44.4
2017-06-21T15:37:37.171Z,44.8
2017-06-21T15:38:39.344Z,45
2017-06-21T15:39:41.817Z,45.3
2017-06-21T15:40:44.080Z,45.6
2017-06-21T15:41:46.162Z,45.8
2017-06-21T15:42:48.236Z,46
2017-06-21T15:43:50.308Z,46.2
2017-06-21T15:44:52.394Z,46.2
2017-06-21T15:45:54.491Z,46.5
2017-06-21T15:46:56.568Z,46.5
2017-06-21T15:47:58.658Z,46.6
2017-06-21T15:49:00.774Z,46.6
2017-06-21T15:50:02.858Z,46.8
2017-06-21T15:51:05.001Z,46.8
2017-06-21T15:52:07.258Z,47
2017-06-21T15:53:09.565Z,46.8
2017-06-21T15:54:11.828Z,46.9
2017-06-21T15:55:13.916Z,47
2017-06-21T15:56:16.123Z,47
2017-06-21T15:57:18.310Z,47
2017-06-21T15:58:20.552Z,47.1
2017-06-21T15:59:22.793Z,47.2
2017-06-21T16:00:24.873Z,47.2
2017-06-21T16:01:27.295Z,47
2017-06-21T16:02:29.367Z,47
2017-06-21T16:03:31.784Z,47.1
2017-06-21T16:04:33.881Z,47.1
2017-06-21T16:05:35.982Z,47
2017-06-21T16:06:38.068Z,47.1
2017-06-21T16:07:40.151Z,47.1
